createdAt,value
2022-10-28T00:01:26.444Z,11.87
2022-10-28T00:03:53.072Z,11.90
2022-10-28T00:06:19.398Z,11.91
2022-10-28T00:08:45.822Z,11.80
2022-10-28T00:11:12.181Z,11.85
2022-10-28T00:13:38.552Z,11.90
2022-10-28T00:16:05.068Z,11.95
2022-10-28T00:18:31.470Z,11.86
2022-10-28T00:20:57.870Z,11.76
2022-10-28T00:23:24.497Z,11.83
2022-10-28T00:25:50.876Z,11.83
2022-10-28T00:28:17.395Z,11.91
2022-10-28T00:30:44.142Z,11.84
2022-10-28T00:33:10.994Z,11.77
2022-10-28T00:35:37.620Z,11.85
2022-10-28T00:38:04.419Z,11.83
2022-10-28T00:40:30.909Z,11.78
2022-10-28T00:42:57.297Z,11.78
2022-10-28T00:45:23.783Z,11.77
2022-10-28T00:47:50.594Z,11.78
2022-10-28T00:50:17.126Z,11.64
2022-10-28T00:52:43.545Z,11.79
2022-10-28T00:55:10.082Z,11.79
2022-10-28T00:57:36.572Z,11.68
2022-10-28T01:00:02.995Z,11.66
2022-10-28T01:02:29.434Z,11.74
2022-10-28T01:04:55.833Z,11.72
2022-10-28T01:07:22.237Z,11.51
2022-10-28T01:09:48.611Z,11.58
2022-10-28T01:12:15.007Z,11.70
2022-10-28T01:14:41.629Z,11.76
2022-10-28T01:17:09.021Z,11.80
2022-10-28T01:19:35.420Z,11.81
2022-10-28T01:22:03.713Z,11.59
2022-10-28T01:24:32.126Z,11.63
2022-10-28T01:26:58.832Z,11.74
2022-10-28T01:29:25.232Z,11.57
2022-10-28T01:31:51.816Z,11.64
2022-10-28T01:34:18.232Z,11.57
2022-10-28T01:36:46.528Z,11.57
2022-10-28T01:39:12.894Z,11.53
2022-10-28T01:41:39.387Z,11.52
2022-10-28T01:44:06.169Z,11.50
2022-10-28T01:46:32.528Z,11.56
2022-10-28T01:48:58.921Z,11.57
2022-10-28T01:51:25.894Z,11.42
2022-10-28T01:53:52.442Z,11.34
2022-10-28T01:56:18.900Z,11.27
2022-10-28T01:58:46.314Z,11.27
2022-10-28T02:01:12.859Z,11.41
2022-10-28T02:03:39.270Z,11.42
2022-10-28T02:06:06.091Z,11.42
2022-10-28T02:08:32.923Z,11.49
2022-10-28T02:10:59.363Z,11.49
2022-10-28T02:13:25.817Z,11.42
2022-10-28T02:15:52.443Z,11.44
2022-10-28T02:18:18.810Z,11.50
2022-10-28T02:20:45.311Z,11.35
2022-10-28T02:23:11.680Z,11.52
2022-10-28T02:25:38.104Z,11.38
2022-10-28T02:28:04.792Z,11.43
2022-10-28T02:30:31.178Z,11.46
2022-10-28T02:32:57.572Z,11.27
2022-10-28T02:35:24.128Z,11.49
2022-10-28T02:37:50.850Z,11.58
2022-10-28T02:40:17.236Z,11.44
2022-10-28T02:42:43.929Z,11.43
2022-10-28T02:45:10.700Z,11.43
2022-10-28T02:47:37.221Z,11.51
2022-10-28T02:50:03.568Z,11.43
2022-10-28T02:52:29.925Z,11.44
2022-10-28T02:54:56.456Z,11.43
2022-10-28T02:57:23.762Z,11.57
2022-10-28T02:59:50.552Z,11.46
2022-10-28T03:02:17.013Z,11.36
2022-10-28T03:04:43.508Z,11.37
2022-10-28T03:07:09.911Z,11.35
2022-10-28T03:09:36.321Z,11.39
2022-10-28T03:25:43.806Z,11.46
2022-10-28T03:28:11.618Z,11.50
2022-10-28T03:30:38.073Z,11.40
2022-10-28T03:33:05.048Z,11.39
2022-10-28T03:35:31.429Z,11.36
2022-10-28T03:37:57.951Z,11.40
2022-10-28T03:40:24.791Z,11.46
2022-10-28T03:42:51.441Z,11.49
2022-10-28T03:45:18.292Z,11.53
2022-10-28T03:47:44.911Z,11.41
2022-10-28T03:50:11.428Z,11.44
2022-10-28T03:52:37.847Z,11.42
2022-10-28T03:55:04.406Z,11.21
2022-10-28T03:57:30.760Z,11.34
2022-10-28T03:59:57.308Z,11.37
2022-10-28T04:02:24.140Z,11.35
2022-10-28T04:04:50.601Z,11.43
2022-10-28T04:07:16.963Z,11.25
2022-10-28T04:09:43.502Z,11.34
2022-10-28T04:12:09.986Z,11.33
2022-10-28T04:14:36.390Z,11.41
2022-10-28T04:17:02.975Z,11.36
2022-10-28T04:19:29.414Z,11.31
2022-10-28T04:21:55.790Z,11.29
2022-10-28T04:24:22.437Z,11.25
2022-10-28T04:26:48.791Z,11.27
2022-10-28T04:29:15.259Z,11.34
2022-10-28T04:31:41.938Z,11.14
2022-10-28T04:34:08.410Z,11.21
2022-10-28T04:36:34.785Z,11.19
2022-10-28T04:39:01.745Z,11.32
2022-10-28T04:41:29.179Z,11.33
2022-10-28T04:43:55.722Z,11.32
2022-10-28T04:46:22.127Z,11.37
2022-10-28T04:48:48.567Z,11.45
2022-10-28T04:51:17.275Z,11.29
2022-10-28T04:53:43.922Z,11.38
2022-10-28T04:56:10.380Z,11.32
2022-10-28T04:58:36.764Z,11.23
2022-10-28T05:01:03.495Z,11.17
2022-10-28T05:03:29.978Z,11.10
2022-10-28T05:05:56.377Z,11.07
2022-10-28T05:08:23.134Z,11.10
2022-10-28T05:10:49.510Z,11.08
2022-10-28T05:13:16.071Z,11.15
2022-10-28T05:15:43.012Z,11.23
2022-10-28T05:18:09.367Z,11.30
2022-10-28T05:20:35.731Z,11.19
2022-10-28T05:23:02.618Z,11.22
2022-10-28T05:25:29.002Z,11.22
2022-10-28T05:27:55.339Z,11.01
2022-10-28T05:30:22.804Z,11.08
2022-10-28T05:32:51.591Z,11.02
2022-10-28T05:35:20.899Z,10.98
2022-10-28T05:37:47.700Z,11.07
2022-10-28T05:40:14.133Z,11.04
2022-10-28T05:42:40.774Z,11.05
2022-10-28T05:45:07.283Z,11.04
2022-10-28T05:47:35.321Z,11.13
2022-10-28T05:50:04.735Z,11.20
2022-10-28T05:52:31.716Z,11.16
2022-10-28T05:54:58.115Z,11.16
2022-10-28T05:57:24.547Z,11.11
2022-10-28T05:59:52.276Z,11.02
2022-10-28T06:02:18.994Z,11.06
2022-10-28T06:04:45.362Z,11.14
2022-10-28T06:07:12.042Z,11.07
2022-10-28T06:09:40.477Z,11.11
2022-10-28T06:12:05.380Z,11.13
2022-10-28T06:14:32.291Z,11.07
2022-10-28T06:16:58.941Z,11.01
2022-10-28T06:19:25.309Z,10.99
2022-10-28T06:21:51.870Z,11.07
2022-10-28T06:24:18.453Z,11.11
2022-10-28T06:26:45.342Z,11.28
2022-10-28T06:29:11.846Z,11.13
2022-10-28T06:31:38.485Z,11.23
2022-10-28T06:34:05.218Z,11.05
2022-10-28T06:36:31.780Z,10.99
2022-10-28T06:38:58.222Z,11.02
2022-10-28T06:41:24.688Z,11.08
2022-10-28T06:43:51.136Z,11.21
2022-10-28T06:46:17.702Z,11.52
2022-10-28T06:48:45.650Z,11.45
2022-10-28T06:51:12.603Z,11.44
2022-10-28T06:53:38.938Z,11.26
2022-10-28T06:56:05.479Z,11.25
2022-10-28T06:58:32.415Z,11.36
2022-10-28T07:00:59.025Z,11.28
2022-10-28T07:03:25.358Z,11.35
2022-10-28T07:05:52.050Z,11.27
2022-10-28T07:08:18.473Z,11.10
2022-10-28T07:10:44.907Z,11.21
2022-10-28T07:13:12.520Z,11.26
2022-10-28T07:15:41.446Z,11.26
2022-10-28T07:18:07.884Z,10.96
2022-10-28T07:20:34.397Z,11.03
2022-10-28T07:23:01.268Z,11.13
2022-10-28T07:25:27.831Z,11.24
2022-10-28T07:27:55.769Z,11.41
2022-10-28T07:30:22.569Z,11.45
2022-10-28T07:32:49.277Z,11.32
2022-10-28T07:35:15.984Z,11.41
2022-10-28T07:37:42.394Z,11.35
2022-10-28T07:40:08.786Z,11.41
2022-10-28T07:42:35.890Z,11.40
2022-10-28T07:45:02.278Z,11.39
2022-10-28T07:47:28.732Z,11.34
2022-10-28T07:49:55.922Z,11.28
2022-10-28T07:52:22.290Z,11.03
2022-10-28T07:54:48.697Z,11.01
2022-10-28T07:57:15.629Z,11.14
2022-10-28T07:59:42.037Z,11.27
2022-10-28T08:02:08.464Z,11.19
2022-10-28T08:04:34.915Z,11.17
2022-10-28T08:07:02.519Z,11.26
2022-10-28T08:09:29.078Z,11.23
2022-10-28T08:11:55.544Z,11.18
2022-10-28T08:14:22.916Z,11.23
2022-10-28T08:16:49.368Z,10.94
2022-10-28T08:19:16.146Z,10.96
2022-10-28T08:21:43.275Z,11.14
2022-10-28T08:24:12.791Z,11.19
2022-10-28T08:26:39.185Z,11.24
2022-10-28T08:29:05.564Z,11.27
2022-10-28T08:31:31.944Z,11.60
2022-10-28T08:33:58.446Z,11.82
2022-10-28T08:36:25.351Z,11.98
2022-10-28T08:38:51.718Z,12.12
2022-10-28T08:41:18.910Z,12.11
2022-10-28T08:43:57.233Z,11.75
2022-10-28T08:46:24.214Z,11.59
2022-10-28T08:48:50.755Z,11.67
2022-10-28T08:51:17.136Z,11.67
2022-10-28T08:53:43.555Z,11.66
2022-10-28T08:56:10.219Z,11.68
2022-10-28T08:58:36.593Z,11.75
2022-10-28T09:01:03.101Z,11.82
2022-10-28T09:03:34.305Z,11.72
2022-10-28T09:06:03.247Z,11.60
2022-10-28T09:08:29.789Z,11.64
2022-10-28T09:10:56.189Z,11.53
2022-10-28T09:13:22.674Z,11.37
2022-10-28T09:15:49.058Z,11.26
2022-10-28T09:18:15.683Z,11.25
2022-10-28T09:20:43.284Z,11.10
2022-10-28T09:23:09.675Z,11.22
2022-10-28T09:25:36.050Z,11.45
2022-10-28T09:28:02.483Z,11.42
2022-10-28T09:30:28.989Z,11.62
2022-10-28T09:32:55.677Z,11.65
2022-10-28T09:35:22.875Z,11.52
2022-10-28T09:37:50.459Z,11.54
2022-10-28T09:40:16.905Z,11.59
2022-10-28T09:42:43.945Z,11.60
2022-10-28T09:45:10.326Z,11.59
2022-10-28T09:47:36.753Z,11.61
2022-10-28T09:50:03.908Z,11.44
2022-10-28T09:52:30.514Z,11.51
2022-10-28T09:54:56.923Z,11.53
2022-10-28T09:57:23.522Z,11.58
2022-10-28T09:59:49.934Z,11.67
2022-10-28T10:02:16.299Z,11.83
2022-10-28T10:04:43.915Z,11.79
2022-10-28T10:07:10.316Z,11.80
2022-10-28T10:09:37.805Z,11.74
2022-10-28T10:12:04.251Z,11.74
2022-10-28T10:14:30.790Z,11.80
2022-10-28T10:16:57.188Z,11.68
2022-10-28T10:19:23.617Z,11.63
2022-10-28T10:21:49.999Z,11.64
2022-10-28T10:24:22.159Z,11.83
2022-10-28T10:26:48.958Z,11.86
2022-10-28T10:29:15.310Z,11.90
2022-10-28T10:31:41.655Z,11.87
2022-10-28T10:34:08.343Z,11.90
2022-10-28T10:36:34.734Z,11.80
2022-10-28T10:39:01.092Z,11.86
2022-10-28T10:41:28.020Z,11.56
2022-10-28T10:43:54.425Z,11.49
2022-10-28T10:46:20.841Z,11.58
2022-10-28T10:48:48.792Z,11.66
2022-10-28T10:51:15.357Z,11.77
2022-10-28T10:53:42.001Z,11.85
2022-10-28T10:56:08.458Z,11.88
2022-10-28T10:58:34.958Z,11.80
2022-10-28T11:01:01.333Z,11.78
2022-10-28T11:03:28.081Z,11.91
2022-10-28T11:06:18.202Z,11.72
2022-10-28T11:08:45.626Z,11.76
2022-10-28T11:11:12.026Z,11.83
2022-10-28T11:13:40.068Z,11.79
2022-10-28T11:16:08.991Z,11.83
2022-10-28T11:18:35.367Z,11.89
2022-10-28T11:21:01.806Z,11.90
2022-10-28T11:23:28.526Z,11.91
2022-10-28T11:25:54.993Z,11.80
2022-10-28T11:28:21.560Z,11.87
2022-10-28T11:30:48.213Z,11.95
2022-10-28T11:33:29.493Z,11.99
2022-10-28T11:35:56.911Z,12.02
2022-10-28T11:38:23.615Z,12.04
2022-10-28T11:40:50.048Z,12.00
2022-10-28T11:43:17.054Z,12.06
2022-10-28T11:45:47.137Z,12.06
2022-10-28T11:48:17.585Z,12.02
2022-10-28T11:50:44.191Z,12.02
2022-10-28T11:53:10.599Z,12.03
2022-10-28T11:55:39.542Z,12.08
2022-10-28T11:58:06.203Z,12.15
2022-10-28T12:00:32.677Z,11.98
2022-10-28T12:02:59.578Z,12.00
2022-10-28T12:05:26.364Z,11.97
2022-10-28T12:07:52.866Z,12.05
2022-10-28T12:10:19.480Z,12.18
2022-10-28T12:12:48.795Z,12.30
2022-10-28T12:15:19.833Z,12.39
2022-10-28T12:17:46.656Z,12.53
2022-10-28T12:20:13.214Z,12.51
2022-10-28T12:22:39.806Z,12.50
2022-10-28T12:25:06.351Z,12.39
2022-10-28T12:27:32.807Z,12.35
2022-10-28T12:29:59.305Z,12.30
2022-10-28T12:32:25.733Z,12.26
2022-10-28T12:34:53.120Z,12.25
2022-10-28T12:37:19.505Z,12.24
2022-10-28T12:39:45.951Z,12.20
2022-10-28T12:42:12.293Z,12.32
2022-10-28T12:44:38.723Z,12.15
2022-10-28T12:47:05.357Z,12.13
2022-10-28T12:49:31.749Z,12.23
2022-10-28T12:51:58.136Z,12.27
2022-10-28T12:54:24.590Z,12.23
2022-10-28T12:56:51.234Z,12.01
2022-10-28T12:59:17.615Z,12.00
2022-10-28T13:01:44.571Z,12.10
2022-10-28T13:04:11.013Z,11.98
2022-10-28T13:09:08.980Z,11.99
2022-10-28T13:11:37.462Z,11.95
2022-10-28T13:14:03.997Z,12.05
2022-10-28T13:16:31.587Z,12.06
2022-10-28T13:18:59.214Z,12.09
2022-10-28T13:21:25.616Z,12.16
2022-10-28T13:23:52.633Z,12.11
2022-10-28T13:26:19.052Z,12.03
2022-10-28T13:28:45.752Z,12.08
2022-10-28T13:31:14.507Z,12.13
2022-10-28T13:33:40.919Z,12.04
2022-10-28T13:36:10.393Z,12.04
2022-10-28T13:38:36.846Z,12.05
2022-10-28T13:41:03.566Z,12.06
2022-10-28T13:43:30.189Z,12.09
2022-10-28T13:45:58.729Z,12.36
2022-10-28T13:48:25.155Z,12.55
2022-10-28T13:50:51.540Z,12.64
2022-10-28T13:53:18.239Z,12.73
2022-10-28T13:55:44.670Z,12.82
2022-10-28T13:58:11.211Z,12.90
2022-10-28T14:00:37.757Z,12.95
2022-10-28T14:03:04.250Z,12.98
2022-10-28T14:05:33.107Z,12.93
2022-10-28T14:07:59.548Z,12.78
2022-10-28T14:10:26.000Z,12.67
2022-10-28T14:12:52.761Z,12.56
2022-10-28T14:15:19.828Z,12.41
2022-10-28T14:17:46.215Z,12.31
2022-10-28T14:20:12.642Z,12.25
2022-10-28T14:22:39.327Z,12.25
2022-10-28T14:25:05.765Z,12.23
2022-10-28T14:27:32.352Z,12.36
2022-10-28T14:29:59.163Z,12.21
2022-10-28T14:32:25.794Z,12.14
2022-10-28T14:34:52.655Z,12.05
2022-10-28T14:37:23.199Z,11.96
2022-10-28T14:39:50.862Z,11.95
2022-10-28T14:42:17.626Z,11.96
2022-10-28T14:44:47.810Z,11.98
2022-10-28T14:47:14.350Z,12.05
2022-10-28T14:49:41.108Z,11.91
2022-10-28T14:52:08.161Z,11.92
2022-10-28T14:54:39.683Z,11.95
2022-10-28T14:57:07.281Z,11.91
2022-10-28T14:59:34.857Z,11.86
2022-10-28T15:02:01.341Z,11.86
2022-10-28T15:04:27.928Z,11.81
2022-10-28T15:06:54.923Z,11.80
2022-10-28T15:09:21.237Z,11.82
2022-10-28T15:11:49.646Z,12.00
2022-10-28T15:14:16.294Z,11.97
2022-10-28T15:16:42.796Z,11.81
2022-10-28T15:19:09.227Z,11.81
2022-10-28T15:21:35.627Z,11.72
2022-10-28T15:24:02.017Z,11.44
2022-10-28T15:26:28.598Z,11.53
2022-10-28T15:28:55.316Z,11.64
2022-10-28T15:31:22.168Z,11.74
2022-10-28T15:33:48.730Z,11.75
2022-10-28T15:36:18.252Z,11.81
2022-10-28T15:38:45.045Z,11.75
2022-10-28T15:41:11.474Z,11.65
2022-10-28T15:43:37.936Z,11.55
2022-10-28T15:46:04.357Z,11.46
2022-10-28T15:48:30.790Z,11.46
2022-10-28T15:50:57.446Z,11.48
2022-10-28T15:53:24.832Z,11.50
2022-10-28T15:58:37.679Z,11.53
2022-10-28T16:01:04.111Z,11.44
2022-10-28T16:06:01.895Z,11.52
2022-10-28T16:08:29.280Z,11.15
2022-10-28T16:10:55.624Z,11.18
2022-10-28T16:13:22.100Z,11.35
2022-10-28T16:15:48.435Z,11.38
2022-10-28T16:18:15.126Z,11.49
2022-10-28T16:20:41.561Z,11.42
2022-10-28T16:23:07.955Z,11.43
2022-10-28T16:25:34.439Z,11.38
2022-10-28T16:28:01.222Z,11.64
2022-10-28T16:30:27.568Z,11.90
2022-10-28T16:32:54.220Z,11.99
2022-10-28T16:35:21.092Z,12.02
2022-10-28T16:37:50.685Z,12.23
2022-10-28T16:40:45.717Z,12.20
2022-10-28T16:43:08.255Z,11.99
2022-10-28T16:45:34.699Z,11.80
2022-10-28T16:48:01.084Z,11.80
2022-10-28T16:50:27.462Z,11.66
2022-10-28T16:52:53.807Z,11.32
2022-10-28T16:55:20.235Z,11.34
2022-10-28T16:57:46.699Z,11.47
2022-10-28T17:00:13.345Z,11.38
2022-10-28T17:02:39.897Z,11.42
2022-10-28T17:05:06.723Z,11.41
2022-10-28T17:07:33.360Z,11.40
2022-10-28T17:09:59.744Z,11.43
2022-10-28T17:12:26.265Z,11.43
2022-10-28T17:14:52.630Z,11.45
2022-10-28T17:17:19.844Z,11.39
2022-10-28T17:19:46.729Z,11.36
2022-10-28T17:22:14.401Z,11.34
2022-10-28T17:24:40.837Z,11.33
2022-10-28T17:27:07.678Z,11.38
2022-10-28T17:29:34.607Z,11.32
2022-10-28T17:32:01.126Z,11.33
2022-10-28T17:34:27.606Z,11.23
2022-10-28T17:36:54.447Z,11.23
2022-10-28T17:39:25.862Z,11.36
2022-10-28T17:41:53.180Z,11.44
2022-10-28T17:44:19.701Z,11.37
2022-10-28T17:46:46.168Z,11.30
2022-10-28T17:49:12.953Z,11.42
2022-10-28T17:51:39.391Z,11.29
2022-10-28T17:54:06.216Z,11.24
2022-10-28T17:56:32.951Z,11.28
2022-10-28T17:58:59.303Z,11.34
2022-10-28T18:01:27.160Z,11.43
2022-10-28T18:03:54.805Z,11.41
2022-10-28T18:06:21.629Z,11.39
2022-10-28T18:08:48.460Z,11.32
2022-10-28T18:11:15.970Z,11.32
2022-10-28T18:13:42.416Z,11.40
2022-10-28T18:16:09.317Z,11.21
2022-10-28T18:18:41.067Z,11.26
2022-10-28T18:21:10.389Z,11.31
2022-10-28T18:23:37.655Z,11.34
2022-10-28T18:26:04.323Z,11.26
2022-10-28T18:28:32.020Z,11.28
2022-10-28T18:30:59.719Z,11.34
2022-10-28T18:33:26.121Z,11.35
2022-10-28T18:35:53.382Z,11.32
2022-10-28T18:38:20.680Z,11.42
2022-10-28T18:40:47.177Z,11.45
2022-10-28T18:43:13.594Z,11.43
2022-10-28T18:45:40.301Z,11.40
2022-10-28T18:48:07.974Z,11.42
2022-10-28T18:50:34.740Z,11.44
2022-10-28T18:53:01.906Z,11.46
2022-10-28T18:55:29.599Z,11.35
2022-10-28T18:57:56.460Z,11.35
2022-10-28T19:00:23.194Z,11.42
2022-10-28T19:02:49.961Z,11.36
2022-10-28T19:05:16.893Z,11.38
2022-10-28T19:07:43.643Z,11.32
2022-10-28T19:10:10.234Z,11.33
2022-10-28T19:12:42.770Z,11.50
2022-10-28T19:15:11.960Z,11.50
2022-10-28T19:17:38.469Z,11.47
2022-10-28T19:20:04.852Z,11.44
2022-10-28T19:22:31.405Z,11.43
2022-10-28T19:24:58.207Z,11.41
2022-10-28T19:27:25.503Z,11.35
2022-10-28T19:29:52.287Z,11.34
2022-10-28T19:32:18.705Z,11.33
2022-10-28T19:34:45.391Z,11.49
2022-10-28T19:37:12.485Z,11.46
2022-10-28T19:39:39.513Z,11.30
2022-10-28T19:42:06.698Z,11.33
2022-10-28T19:44:33.678Z,11.32
2022-10-28T19:47:00.333Z,11.37
2022-10-28T19:49:37.271Z,11.40
2022-10-28T19:52:06.833Z,11.30
2022-10-28T19:54:33.404Z,11.37
2022-10-28T19:57:00.477Z,11.33
2022-10-28T19:59:27.295Z,11.33
2022-10-28T20:01:53.878Z,11.35
2022-10-28T20:04:20.688Z,11.37
2022-10-28T20:06:47.511Z,11.33
2022-10-28T20:09:14.019Z,11.40
2022-10-28T20:11:40.483Z,11.35
2022-10-28T20:14:07.495Z,11.24
2022-10-28T20:16:35.113Z,11.34
2022-10-28T20:19:01.884Z,11.18
2022-10-28T20:21:31.598Z,11.38
2022-10-28T20:23:58.751Z,11.26
2022-10-28T20:26:25.335Z,11.07
2022-10-28T20:28:51.847Z,11.07
2022-10-28T20:31:18.410Z,11.11
2022-10-28T20:33:46.473Z,11.18
2022-10-28T20:36:13.073Z,11.25
2022-10-28T20:38:39.951Z,11.26
2022-10-28T20:41:06.487Z,11.24
2022-10-28T20:43:33.207Z,11.20
2022-10-28T20:45:59.825Z,11.16
2022-10-28T20:48:26.229Z,11.15
2022-10-28T20:50:52.622Z,11.22
2022-10-28T20:53:19.480Z,11.26
2022-10-28T20:55:45.881Z,11.40
2022-10-28T20:58:12.591Z,11.35
2022-10-28T21:00:39.002Z,11.34
2022-10-28T21:03:05.491Z,11.32
2022-10-28T21:05:32.537Z,11.39
2022-10-28T21:07:58.917Z,11.40
2022-10-28T21:10:25.372Z,11.31
2022-10-28T21:12:51.761Z,11.24
2022-10-28T21:15:18.179Z,11.24
2022-10-28T21:17:44.609Z,11.29
2022-10-28T21:20:11.079Z,11.40
2022-10-28T21:22:37.466Z,11.37
2022-10-28T21:25:04.327Z,11.42
2022-10-28T21:27:30.763Z,11.27
2022-10-28T21:29:58.247Z,11.32
2022-10-28T21:32:24.831Z,11.33
2022-10-28T21:34:51.464Z,11.32
2022-10-28T21:37:17.872Z,11.30
2022-10-28T21:39:44.521Z,11.33
2022-10-28T21:42:10.971Z,11.41
2022-10-28T21:44:37.412Z,11.39
2022-10-28T21:47:03.829Z,11.43
2022-10-28T21:49:30.535Z,11.39
2022-10-28T21:51:56.941Z,11.36
2022-10-28T21:54:23.293Z,11.41
2022-10-28T21:56:49.778Z,11.45
2022-10-28T21:59:16.185Z,11.44
2022-10-28T22:01:42.744Z,11.37
2022-10-28T22:04:09.485Z,11.38
2022-10-28T22:06:35.860Z,11.32
2022-10-28T22:09:02.415Z,11.25
2022-10-28T22:11:29.166Z,11.29
2022-10-28T22:13:55.692Z,11.35
2022-10-28T22:16:22.070Z,11.34
2022-10-28T22:18:48.769Z,11.30
2022-10-28T22:21:15.227Z,11.49
2022-10-28T22:23:41.595Z,11.50
2022-10-28T22:26:08.230Z,11.48
2022-10-28T22:28:34.590Z,11.49
2022-10-28T22:31:00.957Z,11.48
2022-10-28T22:33:27.970Z,11.57
2022-10-28T22:35:54.624Z,11.56
2022-10-28T22:38:21.540Z,11.52
2022-10-28T22:40:49.038Z,11.64
2022-10-28T22:43:15.608Z,11.48
2022-10-28T22:45:42.170Z,11.49
2022-10-28T22:48:09.466Z,11.57
2022-10-28T22:50:35.980Z,11.72
2022-10-28T22:53:05.313Z,11.74
2022-10-28T22:55:32.008Z,11.63
2022-10-28T22:57:58.914Z,11.66
2022-10-28T23:00:25.492Z,11.57
2022-10-28T23:02:52.160Z,11.50
2022-10-28T23:05:18.697Z,11.61
2022-10-28T23:07:46.305Z,11.58
2022-10-28T23:10:13.043Z,11.64
2022-10-28T23:12:40.734Z,11.65
2022-10-28T23:15:07.585Z,11.54
2022-10-28T23:17:34.079Z,11.60
2022-10-28T23:20:00.450Z,11.65
2022-10-28T23:22:27.179Z,11.59
2022-10-28T23:24:53.610Z,11.70
2022-10-28T23:27:20.073Z,11.60
2022-10-28T23:29:47.671Z,11.65
2022-10-28T23:32:14.612Z,11.64
2022-10-28T23:34:40.983Z,11.52
2022-10-28T23:37:07.757Z,11.53
2022-10-28T23:39:34.961Z,11.62
2022-10-28T23:42:01.445Z,11.56
2022-10-28T23:44:27.908Z,11.64
2022-10-28T23:46:54.915Z,11.59
2022-10-28T23:49:21.295Z,11.56
2022-10-28T23:51:47.776Z,11.44
2022-10-28T23:54:14.902Z,11.40
2022-10-28T23:56:41.588Z,11.49
2022-10-28T23:59:08.002Z,11.45
